Accueil
METAR-TAF:

METAR-TAF

Aéroports :

Montichiari

Brescia, Italie

latitude: 45-24-02N, longitude: 010-18-59E, altitude: 104 m

Observation

Le bulletin a été fait il y a 37 minutes, à 00:50 UTC
Vent 15 kt de est/nord-est
Température 17°C
Humidité 68%
Pression 1015 hPa
Visibilité 10 km ou plus
Quelques nuages à une hauteur de 5000 ft

METAR: LIPO 210050Z 07015KT 9999 FEW050 17/11 Q1015

Heure: 03:27 (01:27 UTC)

Prévision

Le bulletin a été fait il y a 2 heures et 27 minutes, à 23:00 UTC
Prévision valable du 21 à 00 UTC au 21 à 24 UTC
Vent 5 kt de direction variable
Visibilité 10 km ou plus
Nuages épars à une hauteur de 5000 ft

TAF: LIPO 202300Z 2100/2124 VRB05KT 9999 SCT050

Observations et prévisions météorologiques de plus de 4000 aéroports (messages METAR et TAF).

Les stations disponibles sont représentées par des disques jaunes et rouges sur la carte.

Passer la souris dessus pour voir le nom de la station.

Cliquer dessus pour voir les observations et prévisions météorologiques.

Pour changer de carte: cliquez sur les boutons verts avec une croix noire pour zoomer, sur le bouton vert avec un tiret pour effectuer un zoom arrière, ou sur les flèches vertes pour les cartes adjacentes.


METAR-TAF: